Time;durP1;ratioP1;P1;durP2;ratioP2;P2;SDS_P1;SDS_P2;PMS_P1;PMS_P2;Temp;Humidity;BMP_temperature;BMP_pressure;BME280_temperature;BME280_humidity;BME280_pressure;Samples;Min_cycle;Max_cycle;Signal;HPM_P1;HPM_P2
2021/04/12 00:02:48;;;;;;;8.68;4.70;;;4.20;99.90;;;;;;5068641;28;20024;-47
2021/04/12 00:05:21;;;;;;;9.50;5.80;;;4.20;99.90;;;;;;5064825;28;20128;-46
2021/04/12 00:08:27;;;;;;;10.80;4.97;;;4.20;99.90;;;;;;5066933;28;20027;-45
2021/04/12 00:11:13;;;;;;;10.35;4.72;;;4.20;99.90;;;;;;5069033;28;20020;-47
2021/04/12 00:13:50;;;;;;;9.65;5.10;;;4.20;99.90;;;;;;5068965;28;20056;-47
2021/04/12 00:16:26;;;;;;;7.50;4.97;;;4.10;99.90;;;;;;5086365;28;20020;-48
2021/04/12 00:19:01;;;;;;;12.65;5.65;;;4.10;99.90;;;;;;5088129;28;20468;-46
2021/04/12 00:21:40;;;;;;;7.15;4.82;;;4.10;99.90;;;;;;5088750;28;20032;-48
2021/04/12 00:24:19;;;;;;;10.85;5.22;;;4.00;99.90;;;;;;5088383;28;20062;-48
2021/04/12 00:27:19;;;;;;;8.77;4.55;;;4.00;99.90;;;;;;5089160;28;20023;-46
2021/04/12 00:29:52;;;;;;;7.95;4.72;;;4.10;99.90;;;;;;5039869;28;20382;-47
2021/04/12 00:32:36;;;;;;;10.00;4.60;;;4.00;99.90;;;;;;5070488;28;20186;-47
2021/04/12 00:35:09;;;;;;;7.50;4.65;;;4.00;99.90;;;;;;5088756;28;20038;-46
2021/04/12 00:37:38;;;;;;;12.82;5.13;;;4.00;99.90;;;;;;5088434;28;20501;-48
2021/04/12 00:40:28;;;;;;;8.80;4.93;;;4.00;99.90;;;;;;5088362;28;20077;-47
2021/04/12 00:43:17;;;;;;;8.10;4.53;;;4.00;99.90;;;;;;5087217;28;20038;-48
2021/04/12 00:46:21;;;;;;;8.13;4.82;;;4.00;99.90;;;;;;5088074;28;20047;-48
2021/04/12 00:49:23;;;;;;;9.23;5.28;;;3.90;99.90;;;;;;5049618;28;20497;-48
2021/04/12 00:52:25;;;;;;;9.98;5.13;;;3.90;99.90;;;;;;5087179;28;20042;-48
2021/04/12 00:54:52;;;;;;;12.02;5.57;;;4.00;99.90;;;;;;5073118;28;20028;-49
2021/04/12 00:57:36;;;;;;;7.07;4.57;;;4.00;99.90;;;;;;5069818;28;20055;-50
2021/04/12 01:00:07;;;;;;;12.77;4.90;;;4.00;99.90;;;;;;5067606;28;20148;-48
2021/04/12 01:02:57;;;;;;;9.88;4.85;;;4.00;99.90;;;;;;5067310;28;20297;-49
2021/04/12 01:05:31;;;;;;;11.35;4.85;;;4.00;99.90;;;;;;5068528;28;20052;-47
2021/04/12 01:08:21;;;;;;;10.73;5.07;;;4.00;99.90;;;;;;5067061;28;20042;-48
2021/04/12 01:11:11;;;;;;;8.65;4.95;;;3.90;99.90;;;;;;5067695;28;20107;-49
2021/04/12 01:13:52;;;;;;;11.20;4.63;;;3.90;99.90;;;;;;5068111;28;20016;-47
2021/04/12 01:16:29;;;;;;;9.60;4.82;;;3.90;99.90;;;;;;5067658;28;20029;-50
2021/04/12 01:19:01;;;;;;;10.95;4.50;;;3.90;99.90;;;;;;5067282;28;20217;-50
2021/04/12 01:21:53;;;;;;;9.57;4.65;;;3.80;99.90;;;;;;5079858;28;20031;-48
2021/04/12 01:24:32;;;;;;;10.07;4.38;;;3.80;99.90;;;;;;5087758;28;20089;-48
2021/04/12 01:27:22;;;;;;;7.10;4.72;;;3.80;99.90;;;;;;5088238;28;20020;-47
2021/04/12 01:30:30;;;;;;;8.18;4.82;;;3.80;99.90;;;;;;5087428;28;20024;-47
2021/04/12 01:33:35;;;;;;;10.77;5.50;;;3.80;99.90;;;;;;5087683;28;20047;-47
2021/04/12 01:36:37;;;;;;;14.02;4.75;;;3.80;99.90;;;;;;5087126;28;20024;-47
2021/04/12 01:39:42;;;;;;;9.23;5.57;;;3.80;99.90;;;;;;5083847;28;20405;-47
2021/04/12 01:42:38;;;;;;;10.05;5.07;;;3.80;99.90;;;;;;5082971;28;20043;-47
2021/04/12 01:45:23;;;;;;;6.85;4.60;;;3.80;99.90;;;;;;5082847;28;20094;-48
2021/04/12 01:47:57;;;;;;;10.00;4.65;;;3.80;99.90;;;;;;5084062;28;20479;-47
2021/04/12 01:50:47;;;;;;;12.73;5.35;;;3.70;99.90;;;;;;5086561;28;20504;-47
2021/04/12 01:53:42;;;;;;;11.18;4.97;;;3.70;99.90;;;;;;5086348;28;20023;-48
2021/04/12 01:56:28;;;;;;;17.15;6.63;;;3.80;99.90;;;;;;5045144;28;20020;-48
2021/04/12 01:59:24;;;;;;;6.60;4.20;;;3.70;99.90;;;;;;5084761;28;20092;-48
2021/04/12 02:02:06;;;;;;;8.35;5.45;;;3.70;99.90;;;;;;5084137;28;20023;-48
2021/04/12 02:04:48;;;;;;;12.65;5.10;;;3.70;99.90;;;;;;5094829;28;20032;-47
2021/04/12 02:07:47;;;;;;;9.52;5.35;;;3.60;99.90;;;;;;5085705;28;20242;-47
2021/04/12 02:10:50;;;;;;;8.75;5.10;;;3.60;99.90;;;;;;5085245;28;20027;-49
2021/04/12 02:13:54;;;;;;;8.82;5.30;;;3.50;99.90;;;;;;5085288;28;20027;-48
2021/04/12 02:16:43;;;;;;;13.32;5.00;;;3.60;99.90;;;;;;5084970;28;20107;-48
2021/04/12 02:19:38;;;;;;;13.00;5.03;;;3.50;99.90;;;;;;5085309;28;20095;-48
2021/04/12 02:22:41;;;;;;;11.85;5.20;;;3.50;99.90;;;;;;5084899;28;20020;-48
2021/04/12 02:25:39;;;;;;;10.10;5.63;;;3.50;99.90;;;;;;5087539;28;20434;-48
2021/04/12 02:28:23;;;;;;;10.48;5.05;;;3.50;99.90;;;;;;5084477;28;20346;-48
2021/04/12 02:31:07;;;;;;;8.15;4.88;;;3.50;99.90;;;;;;5086631;28;20024;-48
2021/04/12 02:33:41;;;;;;;17.48;6.22;;;3.50;99.90;;;;;;5087095;28;20115;-50
2021/04/12 02:36:44;;;;;;;10.95;4.70;;;3.40;99.90;;;;;;5086691;28;20032;-49
2021/04/12 02:39:34;;;;;;;8.98;5.53;;;3.50;99.90;;;;;;5085904;28;20024;-47
2021/04/12 02:42:30;;;;;;;14.60;5.90;;;3.40;99.90;;;;;;5086505;28;20032;-49
2021/04/12 02:45:17;;;;;;;6.50;4.90;;;3.40;99.90;;;;;;5086879;28;20020;-49
2021/04/12 02:47:59;;;;;;;9.90;4.80;;;3.40;99.90;;;;;;5084678;28;20566;-47
2021/04/12 02:50:30;;;;;;;13.27;5.22;;;3.40;99.90;;;;;;5086281;28;20463;-49
2021/04/12 02:53:10;;;;;;;13.13;3.92;;;3.40;99.90;;;;;;5085806;28;20513;-48
2021/04/12 02:55:57;;;;;;;10.43;4.80;;;3.40;99.90;;;;;;5086297;28;20020;-48
2021/04/12 02:59:06;;;;;;;9.43;4.38;;;3.40;99.90;;;;;;5064241;28;20043;-50
2021/04/12 03:01:50;;;;;;;9.85;4.20;;;3.40;99.90;;;;;;5066496;28;20060;-47
2021/04/12 03:04:42;;;;;;;9.20;4.30;;;3.40;99.90;;;;;;5088239;28;20107;-47
2021/04/12 03:07:51;;;;;;;11.23;3.83;;;3.40;99.90;;;;;;5094602;28;20366;-48
2021/04/12 03:10:16;;;;;;;10.68;4.53;;;3.30;99.90;;;;;;5066984;28;20039;-49
2021/04/12 03:12:45;;;;;;;10.85;4.85;;;3.40;99.90;;;;;;5095519;28;20019;-47
2021/04/12 03:15:43;;;;;;;14.52;3.90;;;3.30;99.90;;;;;;5096830;28;20484;-47
2021/04/12 03:18:31;;;;;;;11.35;4.35;;;3.30;99.90;;;;;;5098999;28;20073;-47
2021/04/12 03:21:25;;;;;;;9.75;4.40;;;3.40;99.90;;;;;;5098427;28;20036;-49
2021/04/12 03:24:17;;;;;;;7.28;4.10;;;3.40;99.90;;;;;;5086438;28;20024;-47
2021/04/12 03:26:57;;;;;;;10.50;3.65;;;3.30;99.90;;;;;;5076070;28;20036;-47
2021/04/12 03:29:52;;;;;;;6.50;3.53;;;3.30;99.90;;;;;;5089275;28;20028;-47
2021/04/12 03:32:39;;;;;;;7.30;3.28;;;3.30;99.90;;;;;;5089565;28;20711;-47
2021/04/12 03:35:08;;;;;;;7.13;3.72;;;3.30;99.90;;;;;;5089962;28;20056;-48
2021/04/12 03:37:55;;;;;;;6.32;3.38;;;3.30;99.90;;;;;;5088883;28;20020;-47
2021/04/12 03:40:25;;;;;;;9.93;3.65;;;3.30;99.90;;;;;;5070759;28;20058;-49
2021/04/12 03:43:32;;;;;;;16.05;3.72;;;3.20;99.90;;;;;;5089702;28;20039;-48
2021/04/12 03:46:12;;;;;;;9.68;3.30;;;3.20;99.90;;;;;;5089750;28;20404;-48
2021/04/12 03:48:59;;;;;;;13.20;3.73;;;3.20;99.90;;;;;;5088972;28;20031;-49
2021/04/12 03:51:30;;;;;;;5.93;3.20;;;3.10;99.90;;;;;;5088801;28;20032;-48
2021/04/12 03:54:31;;;;;;;6.10;3.13;;;3.10;99.90;;;;;;5090051;28;20114;-48
2021/04/12 03:57:34;;;;;;;6.43;2.80;;;3.10;99.90;;;;;;5089250;28;20126;-47
2021/04/12 04:00:14;;;;;;;5.75;3.00;;;3.10;99.90;;;;;;5079738;28;20060;-49
2021/04/12 04:02:45;;;;;;;6.78;2.85;;;3.10;99.90;;;;;;5097231;28;20027;-48
2021/04/12 04:05:28;;;;;;;10.05;4.05;;;3.00;99.90;;;;;;5103899;28;20032;-47
2021/04/12 04:08:05;;;;;;;9.20;3.90;;;3.00;99.90;;;;;;5108860;28;20400;-47
2021/04/12 04:10:44;;;;;;;8.90;2.95;;;3.10;99.90;;;;;;5079420;28;20031;-47
2021/04/12 04:13:37;;;;;;;7.72;3.03;;;3.00;99.90;;;;;;5106905;28;20024;-48
2021/04/12 04:16:14;;;;;;;6.25;3.03;;;3.00;99.90;;;;;;5109801;28;20120;-51
2021/04/12 04:18:49;;;;;;;8.55;2.97;;;3.00;99.90;;;;;;5109002;28;20061;-48
2021/04/12 04:21:18;;;;;;;6.78;3.53;;;3.00;99.90;;;;;;5097661;28;20564;-49
2021/04/12 04:23:53;;;;;;;7.55;2.90;;;3.00;99.90;;;;;;5088056;28;20036;-51
2021/04/12 04:26:56;;;;;;;10.50;3.05;;;3.00;99.90;;;;;;5089026;28;20415;-49
2021/04/12 04:29:57;;;;;;;8.35;3.00;;;3.00;99.90;;;;;;5088158;28;20455;-48
2021/04/12 04:32:41;;;;;;;6.53;3.22;;;3.00;99.90;;;;;;5088780;28;20031;-48
2021/04/12 04:35:24;;;;;;;10.43;3.60;;;3.00;99.90;;;;;;5089134;28;20111;-47
2021/04/12 04:38:18;;;;;;;11.70;3.30;;;3.00;99.90;;;;;;5091826;28;20024;-46
2021/04/12 04:41:12;;;;;;;5.45;3.13;;;3.00;99.90;;;;;;5097673;28;20020;-49
2021/04/12 04:44:17;;;;;;;8.05;3.40;;;3.00;99.90;;;;;;5093992;28;20370;-47
2021/04/12 04:47:20;;;;;;;7.57;3.03;;;3.00;99.90;;;;;;5088232;28;20028;-47
2021/04/12 04:50:14;;;;;;;6.43;3.35;;;3.00;99.90;;;;;;5087664;28;20493;-49
2021/04/12 04:53:03;;;;;;;6.47;3.22;;;2.90;99.90;;;;;;5067911;28;20020;-48
2021/04/12 04:55:56;;;;;;;12.52;3.38;;;3.00;99.90;;;;;;5070983;28;20393;-48
2021/04/12 04:58:33;;;;;;;20.55;4.32;;;3.00;99.90;;;;;;5085410;28;20024;-48
2021/04/12 05:01:16;;;;;;;9.00;3.70;;;2.90;99.90;;;;;;5086092;28;20032;-49
2021/04/12 05:04:17;;;;;;;7.07;3.40;;;2.90;99.90;;;;;;5088874;28;20024;-48
2021/04/12 05:06:55;;;;;;;;;;;3.00;99.90;;;;;;5070740;28;20044;-50
2021/04/12 05:09:35;;;;;;;10.32;3.60;;;3.00;99.90;;;;;;5087727;28;19915;-52
2021/04/12 05:12:16;;;;;;;11.02;4.05;;;3.00;99.90;;;;;;5089450;28;20040;-52
2021/04/12 05:15:00;;;;;;;6.32;3.45;;;3.00;99.90;;;;;;5095837;28;20158;-50
2021/04/12 05:17:46;;;;;;;12.35;4.53;;;3.00;99.90;;;;;;5084267;28;20524;-52
2021/04/12 05:20:29;;;;;;;8.73;4.20;;;3.00;99.90;;;;;;5084448;28;20031;-51
2021/04/12 05:23:14;;;;;;;12.15;4.03;;;3.10;99.90;;;;;;5081189;28;20031;-51
2021/04/12 05:25:48;;;;;;;13.05;3.50;;;3.00;99.90;;;;;;5085951;28;20024;-50
2021/04/12 05:28:41;;;;;;;8.20;4.10;;;3.00;99.90;;;;;;5080227;28;20031;-51
2021/04/12 05:31:44;;;;;;;10.82;4.55;;;3.10;99.90;;;;;;5086903;28;20077;-51
2021/04/12 05:34:37;;;;;;;9.45;3.75;;;3.10;99.90;;;;;;5086579;28;20039;-51
2021/04/12 05:37:50;;;;;;;6.60;3.70;;;3.10;99.90;;;;;;5087903;28;20103;-51
2021/04/12 05:40:46;;;;;;;10.25;3.63;;;3.10;99.90;;;;;;5086161;28;20032;-51
2021/04/12 05:43:48;;;;;;;13.20;4.10;;;3.20;99.90;;;;;;5082962;28;20030;-52
2021/04/12 05:46:41;;;;;;;7.50;3.70;;;3.30;99.90;;;;;;5085406;28;20034;-52
2021/04/12 05:49:26;;;;;;;13.85;5.93;;;3.30;99.90;;;;;;5085689;28;20103;-52
2021/04/12 05:52:13;;;;;;;7.65;3.50;;;3.30;99.90;;;;;;5088102;28;20075;-52
2021/04/12 05:55:05;;;;;;;7.35;3.65;;;3.40;99.90;;;;;;5088923;28;20131;-52
2021/04/12 05:57:45;;;;;;;4.57;3.60;;;3.40;99.90;;;;;;5087583;28;20024;-52
2021/04/12 06:00:38;;;;;;;7.57;4.00;;;3.40;99.90;;;;;;5084508;28;20027;-52
2021/04/12 06:03:22;;;;;;;10.10;3.35;;;3.50;99.90;;;;;;5069773;28;20108;-52
2021/04/12 06:06:22;;;;;;;11.65;4.53;;;3.60;99.90;;;;;;5068047;28;20093;-52
2021/04/12 06:09:22;;;;;;;9.02;3.38;;;3.70;99.90;;;;;;5067141;28;20049;-52
2021/04/12 06:11:59;;;;;;;5.53;3.38;;;3.80;99.90;;;;;;5067868;28;20029;-52
2021/04/12 06:14:46;;;;;;;10.73;4.38;;;3.90;99.90;;;;;;5083799;28;20051;-51
2021/04/12 06:17:41;;;;;;;10.68;4.13;;;3.90;99.90;;;;;;5082579;28;20470;-50
2021/04/12 06:20:36;;;;;;;11.18;4.22;;;4.00;99.90;;;;;;5076784;28;20028;-52
2021/04/12 06:23:05;;;;;;;8.90;4.65;;;4.10;99.90;;;;;;5067214;28;20413;-51
2021/04/12 06:26:04;;;;;;;14.70;5.85;;;4.10;99.90;;;;;;5087638;28;20024;-51
2021/04/12 06:28:51;;;;;;;8.40;4.43;;;4.10;99.90;;;;;;5087516;28;20274;-50
2021/04/12 06:31:35;;;;;;;6.50;3.38;;;4.20;99.90;;;;;;5087553;28;20024;-51
2021/04/12 06:34:22;;;;;;;9.10;3.53;;;4.20;99.90;;;;;;5084880;28;20032;-52
2021/04/12 06:37:12;;;;;;;9.45;3.63;;;4.20;99.90;;;;;;5067187;28;20044;-52
2021/04/12 06:39:38;;;;;;;6.32;3.70;;;4.10;99.90;;;;;;5068499;28;20021;-51
2021/04/12 06:42:23;;;;;;;6.70;3.72;;;4.10;99.90;;;;;;5079089;28;20499;-52
2021/04/12 06:45:10;;;;;;;9.43;3.50;;;4.20;99.90;;;;;;5050565;28;20058;-51
2021/04/12 06:48:25;;;;;;;6.13;3.55;;;4.20;99.90;;;;;;5088621;28;20048;-50
2021/04/12 06:51:19;;;;;;;13.55;3.50;;;4.30;99.90;;;;;;5087373;28;20034;-52
2021/04/12 06:54:06;;;;;;;8.55;3.83;;;4.40;99.90;;;;;;5069346;28;20024;-52
2021/04/12 06:57:14;;;;;;;14.63;3.80;;;4.40;99.90;;;;;;5076241;28;20040;-52
2021/04/12 07:00:03;;;;;;;6.78;3.53;;;4.50;99.90;;;;;;5074822;28;20024;-52
2021/04/12 07:02:57;;;;;;;11.43;3.58;;;4.50;99.90;;;;;;5084028;28;20020;-53
2021/04/12 07:05:51;;;;;;;12.82;3.70;;;4.60;99.90;;;;;;5091345;28;20047;-52
2021/04/12 07:08:21;;;;;;;10.43;3.75;;;4.50;99.90;;;;;;5068220;28;20028;-51
2021/04/12 07:11:03;;;;;;;7.70;3.33;;;4.50;99.90;;;;;;5088566;28;20024;-51
2021/04/12 07:13:44;;;;;;;8.82;4.05;;;4.40;99.90;;;;;;5088645;28;20028;-51
2021/04/12 07:16:27;;;;;;;8.02;3.40;;;4.40;99.90;;;;;;5087392;28;20440;-52
2021/04/12 07:19:20;;;;;;;13.38;3.28;;;4.40;99.90;;;;;;5089127;28;20620;-52
2021/04/12 07:22:12;;;;;;;8.82;4.03;;;4.50;99.90;;;;;;5091816;28;20055;-51
2021/04/12 07:24:53;;;;;;;8.88;3.25;;;4.40;99.90;;;;;;5089338;28;20519;-51
2021/04/12 07:27:50;;;;;;;7.22;3.28;;;4.50;99.90;;;;;;5091492;28;20035;-51
2021/04/12 07:30:40;;;;;;;6.85;3.58;;;4.60;99.90;;;;;;5077066;28;20043;-51
2021/04/12 07:33:29;;;;;;;11.93;3.35;;;4.70;99.90;;;;;;5091360;28;20036;-52
2021/04/12 07:36:23;;;;;;;6.75;3.58;;;4.70;99.90;;;;;;5103451;28;20016;-52
2021/04/12 07:39:07;;;;;;;7.63;3.30;;;4.80;99.90;;;;;;5091152;28;20020;-51
2021/04/12 07:41:47;;;;;;;4.93;2.72;;;4.90;99.90;;;;;;5092316;28;20355;-51
2021/04/12 07:44:34;;;;;;;10.65;3.20;;;5.00;99.90;;;;;;5090558;28;20024;-52
2021/04/12 07:47:37;;;;;;;8.48;3.95;;;5.00;99.90;;;;;;5090151;28;20103;-52
2021/04/12 07:50:27;;;;;;;7.50;3.03;;;4.90;99.90;;;;;;5068664;28;20178;-52
2021/04/12 07:53:30;;;;;;;9.93;3.15;;;5.00;99.90;;;;;;5080122;28;20648;-52
2021/04/12 07:56:05;;;;;;;7.38;3.42;;;5.10;99.90;;;;;;5066812;28;20482;-50
2021/04/12 07:58:50;;;;;;;9.13;2.90;;;5.20;99.90;;;;;;5079481;28;20052;-52
2021/04/12 08:01:38;;;;;;;10.73;3.20;;;5.40;99.90;;;;;;5081795;28;20067;-52
2021/04/12 08:04:35;;;;;;;7.88;2.95;;;5.60;99.90;;;;;;5079453;28;20630;-53
2021/04/12 08:07:34;;;;;;;9.85;2.80;;;5.90;99.90;;;;;;5079090;28;20114;-53
2021/04/12 08:10:27;;;;;;;7.00;3.13;;;6.10;99.90;;;;;;5080748;28;20030;-53
2021/04/12 08:13:11;;;;;;;8.15;2.97;;;6.40;99.90;;;;;;5081818;28;20030;-53
2021/04/12 08:15:52;;;;;;;11.25;3.38;;;6.50;99.90;;;;;;5067319;28;20032;-52
2021/04/12 08:18:33;;;;;;;6.53;3.20;;;6.50;99.90;;;;;;5089753;28;20503;-52
2021/04/12 08:21:15;;;;;;;11.40;3.28;;;6.70;99.90;;;;;;5090507;28;20035;-52
2021/04/12 08:23:57;;;;;;;10.75;3.28;;;6.80;99.90;;;;;;5090661;28;20649;-52
2021/04/12 08:27:20;;;;;;;5.57;3.03;;;6.80;99.90;;;;;;5090271;28;20024;-52
2021/04/12 08:30:01;;;;;;;9.60;2.90;;;6.80;99.90;;;;;;5091380;28;20131;-52
2021/04/12 08:33:03;;;;;;;10.20;3.17;;;6.70;99.90;;;;;;5091460;28;20031;-52
2021/04/12 08:36:09;;;;;;;10.82;2.88;;;6.60;99.90;;;;;;5090864;28;20031;-53
2021/04/12 08:39:17;;;;;;;12.13;3.13;;;6.50;99.90;;;;;;5089484;28;20032;-53
2021/04/12 08:42:10;;;;;;;12.18;3.13;;;6.50;99.90;;;;;;5091288;28;20473;-52
2021/04/12 08:44:35;;;;;;;8.93;3.80;;;6.60;99.90;;;;;;5074696;28;20547;-52
2021/04/12 08:47:10;;;;;;;9.80;2.92;;;6.60;99.90;;;;;;5090382;28;20028;-52
2021/04/12 08:50:02;;;;;;;10.68;2.65;;;7.00;99.90;;;;;;5089613;28;20070;-52
2021/04/12 08:52:37;;;;;;;8.35;2.55;;;7.50;99.90;;;;;;5085294;28;20059;-52
2021/04/12 08:55:40;;;;;;;10.27;2.70;;;8.00;99.90;;;;;;5085185;28;20032;-53
2021/04/12 08:58:26;;;;;;;8.43;2.83;;;8.00;99.90;;;;;;5081533;28;20517;-52
2021/04/12 09:01:24;;;;;;;3.20;2.13;;;8.40;99.90;;;;;;5070931;28;20028;-53
2021/04/12 09:04:11;;;;;;;10.15;2.70;;;8.60;99.90;;;;;;5081949;28;20102;-53
2021/04/12 09:07:03;;;;;;;9.88;2.65;;;9.30;99.90;;;;;;5084450;28;20128;-53
2021/04/12 09:09:37;;;;;;;4.30;2.33;;;10.50;97.70;;;;;;5088605;28;20031;-54
2021/04/12 09:12:29;;;;;;;7.70;2.33;;;11.40;92.90;;;;;;5088859;28;20054;-54
2021/04/12 09:15:08;;;;;;;6.32;2.45;;;12.00;91.30;;;;;;5087323;28;20065;-53
2021/04/12 09:17:55;;;;;;;7.25;2.40;;;12.60;84.90;;;;;;5087876;28;20032;-53
2021/04/12 09:21:05;;;;;;;5.20;1.92;;;12.90;79.90;;;;;;5084124;28;20371;-54
2021/04/12 09:23:42;;;;;;;6.57;2.13;;;12.50;76.50;;;;;;5087397;28;20020;-54
2021/04/12 09:26:30;;;;;;;4.75;2.00;;;11.90;83.40;;;;;;5088215;28;20032;-53
2021/04/12 09:29:14;;;;;;;5.15;1.83;;;11.40;80.60;;;;;;5088363;28;20024;-52
2021/04/12 09:32:17;;;;;;;6.88;2.42;;;11.40;80.50;;;;;;5088501;28;20521;-54
2021/04/12 09:35:11;;;;;;;7.78;2.20;;;11.90;78.50;;;;;;5087003;28;20099;-52
2021/04/12 09:37:48;;;;;;;12.95;2.72;;;11.70;75.80;;;;;;5087667;28;20038;-53
2021/04/12 09:40:26;;;;;;;4.32;1.90;;;11.50;76.20;;;;;;5088376;28;20042;-53
2021/04/12 09:43:19;;;;;;;4.88;1.88;;;11.90;74.50;;;;;;5088922;28;20104;-54
2021/04/12 09:46:03;;;;;;;9.20;2.45;;;11.60;71.40;;;;;;5060792;28;20040;-53
2021/04/12 09:49:00;;;;;;;7.88;1.98;;;12.40;74.10;;;;;;5087485;28;20228;-54
2021/04/12 09:51:48;;;;;;;7.68;1.98;;;14.30;64.90;;;;;;5086300;28;20024;-55
2021/04/12 09:55:00;;;;;;;3.85;1.80;;;15.50;58.50;;;;;;5087934;28;20020;-54
2021/04/12 09:57:44;;;;;;;7.43;2.28;;;16.70;59.50;;;;;;5066807;28;20414;-53
2021/04/12 10:00:47;;;;;;;3.75;1.40;;;17.50;55.90;;;;;;5068064;28;20035;-55
2021/04/12 10:03:53;;;;;;;4.75;2.22;;;19.10;47.40;;;;;;5084332;28;20052;-55
2021/04/12 10:06:37;;;;;;;3.60;1.77;;;18.70;45.60;;;;;;5050488;28;20024;-54
2021/04/12 10:09:38;;;;;;;5.75;1.50;;;17.70;48.70;;;;;;5087223;28;20057;-53
2021/04/12 10:12:32;;;;;;;6.75;1.95;;;15.60;52.80;;;;;;5088028;28;20156;-54
2021/04/12 10:15:40;;;;;;;5.10;1.73;;;14.90;55.30;;;;;;5086331;28;20028;-54
2021/04/12 10:18:35;;;;;;;8.27;1.95;;;14.90;58.40;;;;;;5068820;28;20020;-53
2021/04/12 10:21:39;;;;;;;6.82;1.80;;;16.30;57.10;;;;;;5064957;28;20105;-53
2021/04/12 10:24:11;;;;;;;2.83;1.30;;;17.20;50.30;;;;;;5083402;28;20051;-54
2021/04/12 10:26:43;;;;;;;4.43;1.90;;;18.70;45.40;;;;;;5087729;28;20024;-54
2021/04/12 10:29:27;;;;;;;2.20;1.38;;;17.80;44.20;;;;;;5087249;28;20028;-54
2021/04/12 10:31:55;;;;;;;3.58;1.38;;;16.60;46.30;;;;;;5085764;28;20048;-53
2021/04/12 10:34:26;;;;;;;5.10;1.88;;;16.50;50.20;;;;;;5070526;28;20086;-55
2021/04/12 10:37:03;;;;;;;5.68;2.00;;;17.00;52.10;;;;;;5092243;28;20592;-54
2021/04/12 10:39:47;;;;;;;4.50;1.55;;;17.30;48.40;;;;;;5089468;28;20024;-53
2021/04/12 10:42:24;;;;;;;4.95;1.45;;;17.60;49.50;;;;;;5080396;28;20062;-53
2021/04/12 10:45:05;;;;;;;5.28;1.30;;;17.70;46.80;;;;;;5073024;28;20016;-54
2021/04/12 10:47:53;;;;;;;6.38;1.58;;;18.40;47.00;;;;;;5063634;28;20046;-55
2021/04/12 10:50:30;;;;;;;3.55;1.20;;;19.40;44.70;;;;;;5076147;28;20024;-54
2021/04/12 10:53:33;;;;;;;7.05;1.38;;;20.40;42.80;;;;;;5093111;28;20020;-55
2021/04/12 10:56:23;;;;;;;1.98;0.90;;;20.60;39.80;;;;;;5093054;28;20028;-54
2021/04/12 10:59:30;;;;;;;4.05;1.40;;;21.80;39.80;;;;;;5082974;28;20077;-53
2021/04/12 11:02:18;;;;;;;5.60;1.67;;;23.10;39.20;;;;;;5068385;28;20044;-54
2021/04/12 11:05:15;;;;;;;4.07;1.48;;;22.20;37.90;;;;;;5084212;28;20027;-55
2021/04/12 11:08:02;;;;;;;5.97;1.30;;;20.00;38.00;;;;;;5083965;28;20034;-55
2021/04/12 11:11:00;;;;;;;3.70;1.13;;;18.30;40.90;;;;;;5089402;28;20381;-55
2021/04/12 11:13:35;;;;;;;3.63;1.35;;;15.60;43.80;;;;;;5073255;28;20037;-53
2021/04/12 11:16:14;;;;;;;5.18;1.35;;;14.30;48.40;;;;;;5083548;28;20017;-53
2021/04/12 11:18:55;;;;;;;3.15;1.38;;;13.40;49.90;;;;;;5069073;28;20029;-53
2021/04/12 11:21:31;;;;;;;6.03;1.35;;;12.70;51.90;;;;;;5089808;28;20089;-55
2021/04/12 11:24:05;;;;;;;3.83;1.85;;;12.20;56.40;;;;;;5090711;28;20013;-54
2021/04/12 11:26:59;;;;;;;3.42;0.98;;;11.80;56.90;;;;;;5089898;28;20564;-52
2021/04/12 11:29:28;;;;;;;5.88;1.80;;;11.50;56.50;;;;;;5090085;28;20026;-52
2021/04/12 11:32:10;;;;;;;5.72;1.70;;;11.30;58.50;;;;;;5090925;28;20452;-52
2021/04/12 11:34:41;;;;;;;3.53;1.58;;;11.00;58.60;;;;;;5089308;28;20034;-51
2021/04/12 11:37:09;;;;;;;5.53;1.20;;;11.10;61.70;;;;;;5090693;28;20020;-53
2021/04/12 11:39:41;;;;;;;4.65;1.48;;;12.20;59.80;;;;;;5089897;28;20086;-54
2021/04/12 11:42:19;;;;;;;4.13;1.42;;;13.00;54.60;;;;;;5090498;28;20103;-52
2021/04/12 11:44:52;;;;;;;6.47;1.50;;;13.20;55.30;;;;;;5087873;28;20505;-53
2021/04/12 11:47:59;;;;;;;3.20;1.15;;;13.30;54.30;;;;;;5089724;28;20028;-52
2021/04/12 11:50:33;;;;;;;1.83;1.17;;;13.50;52.30;;;;;;5027495;28;20131;-53
2021/04/12 11:53:27;;;;;;;4.97;1.60;;;13.80;55.20;;;;;;5061538;28;20486;-53
2021/04/12 11:56:00;;;;;;;3.03;1.40;;;13.90;53.50;;;;;;5086967;28;20120;-54
2021/04/12 11:58:41;;;;;;;3.53;1.10;;;13.40;52.60;;;;;;5078794;28;20028;-53
2021/04/12 12:01:13;;;;;;;3.17;1.10;;;13.50;53.90;;;;;;5085149;28;20028;-52
2021/04/12 12:03:57;;;;;;;4.63;1.25;;;13.20;54.40;;;;;;5084141;28;20639;-53
2021/04/12 12:06:34;;;;;;;2.78;1.30;;;12.80;52.20;;;;;;5078911;28;20036;-53
2021/04/12 12:09:23;;;;;;;2.88;1.23;;;12.40;57.50;;;;;;5081755;28;20055;-53
2021/04/12 12:12:01;;;;;;;5.20;1.55;;;12.50;55.30;;;;;;5080517;28;20029;-54
2021/04/12 12:14:27;;;;;;;3.78;1.58;;;12.20;56.50;;;;;;5079751;28;20032;-52
2021/04/12 12:16:56;;;;;;;5.60;1.50;;;12.00;56.30;;;;;;5088290;28;20100;-52
2021/04/12 12:19:49;;;;;;;4.07;1.63;;;11.80;56.00;;;;;;5072670;28;20081;-52
2021/04/12 12:22:25;;;;;;;2.53;1.30;;;11.60;57.00;;;;;;5086566;28;20004;-52
2021/04/12 12:25:29;;;;;;;2.40;1.10;;;11.40;60.10;;;;;;5072313;28;20012;-53
2021/04/12 12:28:21;;;;;;;12.68;2.20;;;11.20;58.50;;;;;;5052647;28;20025;-51
2021/04/12 12:31:30;;;;;;;3.20;1.50;;;10.90;60.60;;;;;;5077018;28;20062;-52
2021/04/12 12:34:24;;;;;;;2.58;1.45;;;11.10;59.40;;;;;;5084209;28;20127;-53
2021/04/12 12:36:56;;;;;;;5.55;1.75;;;11.30;61.10;;;;;;5076160;28;20026;-52
2021/04/12 12:39:44;;;;;;;7.07;1.55;;;11.50;60.80;;;;;;5077479;28;20304;-52
2021/04/12 12:42:23;;;;;;;4.38;1.40;;;11.50;59.60;;;;;;5077596;28;20529;-52
2021/04/12 12:44:52;;;;;;;4.43;1.30;;;11.80;59.60;;;;;;5075797;28;20031;-52
2021/04/12 12:47:23;;;;;;;1.98;1.10;;;12.20;61.10;;;;;;5078407;28;20485;-53
2021/04/12 12:50:01;;;;;;;3.85;1.20;;;12.90;54.40;;;;;;5081627;28;20520;-52
2021/04/12 12:52:30;;;;;;;3.65;1.30;;;13.00;52.60;;;;;;5080925;28;20013;-52
2021/04/12 12:54:58;;;;;;;4.82;1.38;;;13.40;52.40;;;;;;5070661;28;20027;-53
2021/04/12 12:57:33;;;;;;;4.18;1.23;;;13.50;50.60;;;;;;5082096;28;20020;-53
2021/04/12 13:00:19;;;;;;;3.45;1.10;;;13.00;51.00;;;;;;5070543;28;20077;-54
2021/04/12 13:02:45;;;;;;;2.28;1.00;;;12.70;54.20;;;;;;5081796;28;20067;-53
2021/04/12 13:05:25;;;;;;;4.65;1.52;;;12.10;53.40;;;;;;5084833;28;20088;-51
2021/04/12 13:08:03;;;;;;;3.42;1.30;;;11.60;55.40;;;;;;5089051;28;20366;-52
2021/04/12 13:10:28;;;;;;;3.42;1.50;;;11.10;61.50;;;;;;5078883;28;20090;-51
2021/04/12 13:12:55;;;;;;;3.30;1.38;;;10.80;63.40;;;;;;5088909;28;20020;-52
2021/04/12 13:15:34;;;;;;;4.68;1.70;;;10.30;65.00;;;;;;5088376;28;20024;-52
2021/04/12 13:18:26;;;;;;;3.55;1.10;;;10.30;69.40;;;;;;5083970;28;20012;-53
2021/04/12 13:20:57;;;;;;;5.70;1.52;;;10.70;67.70;;;;;;5086247;28;20036;-52
2021/04/12 13:23:44;;;;;;;4.28;1.27;;;10.60;64.50;;;;;;5078932;28;20437;-51
2021/04/12 13:26:40;;;;;;;5.47;1.58;;;11.00;64.00;;;;;;5077786;28;20038;-51
2021/04/12 13:29:20;;;;;;;9.68;1.25;;;10.80;64.30;;;;;;5068878;28;20114;-51
2021/04/12 13:31:55;;;;;;;5.45;1.20;;;9.80;58.10;;;;;;5068988;28;20505;-52
2021/04/12 13:34:30;;;;;;;4.03;1.50;;;9.50;60.10;;;;;;5079032;28;20032;-52
2021/04/12 13:37:23;;;;;;;3.95;1.00;;;9.60;62.00;;;;;;5071671;28;20287;-52
2021/04/12 13:39:57;;;;;;;3.15;1.20;;;10.10;59.10;;;;;;5078107;28;20023;-52
2021/04/12 13:42:27;;;;;;;2.38;1.02;;;10.10;60.60;;;;;;5076982;28;20119;-51
2021/04/12 13:45:00;;;;;;;3.30;1.30;;;10.10;57.80;;;;;;5089511;28;20378;-52
2021/04/12 13:47:48;;;;;;;5.65;1.35;;;10.10;61.90;;;;;;5052165;28;20070;-51
2021/04/12 13:50:25;;;;;;;3.92;1.55;;;10.20;64.40;;;;;;5087267;28;20084;-51
2021/04/12 13:53:07;;;;;;;2.05;1.17;;;10.00;61.60;;;;;;5088487;28;20020;-51
2021/04/12 13:55:47;;;;;;;2.40;0.95;;;10.10;63.20;;;;;;5087054;28;20378;-52
2021/04/12 13:58:24;;;;;;;5.68;1.95;;;10.40;61.80;;;;;;5087516;28;20107;-51
2021/04/12 14:00:56;;;;;;;2.13;1.35;;;10.10;62.60;;;;;;5088355;28;20024;-52
2021/04/12 14:03:34;;;;;;;4.50;1.42;;;10.10;67.20;;;;;;5086678;28;20046;-52
2021/04/12 14:06:14;;;;;;;6.00;1.90;;;9.90;64.40;;;;;;5087353;28;20473;-52
2021/04/12 14:08:51;;;;;;;2.83;1.33;;;9.60;63.00;;;;;;5084298;28;20498;-50
2021/04/12 14:11:46;;;;;;;2.58;1.38;;;9.60;64.30;;;;;;5081915;28;20069;-51
2021/04/12 14:14:17;;;;;;;3.95;1.60;;;9.80;65.50;;;;;;5087071;28;20105;-51
2021/04/12 14:16:45;;;;;;;3.03;0.95;;;10.20;69.60;;;;;;5088307;28;20020;-52
2021/04/12 14:19:14;;;;;;;2.95;1.75;;;10.40;67.60;;;;;;5094248;28;20518;-51
2021/04/12 14:21:51;;;;;;;3.22;1.60;;;10.70;67.70;;;;;;5093510;28;20100;-51
2021/04/12 14:24:27;;;;;;;4.25;1.17;;;10.90;64.40;;;;;;5087728;28;20028;-53
2021/04/12 14:27:11;;;;;;;1.80;1.00;;;10.80;61.40;;;;;;5074630;28;20035;-52
2021/04/12 14:29:40;;;;;;;2.20;1.15;;;10.50;65.40;;;;;;5086969;28;20028;-52